sensor_id;sensor_type;location;lat;lon;timestamp;noise_LAeq;noise_LA_min;noise_LA_max;noise_LA01;noise_LA95
49215;Laerm;45943;53.148;8.204;2023-04-03T00:01:38;40.54;36.26;43.25;;
49215;Laerm;45943;53.148;8.204;2023-04-03T00:04:05;40.45;35.96;42.82;;
49215;Laerm;45943;53.148;8.204;2023-04-03T00:06:31;40.54;36.26;43.13;;
49215;Laerm;45943;53.148;8.204;2023-04-03T00:08:57;40.94;37.29;45.67;;
49215;Laerm;45943;53.148;8.204;2023-04-03T00:11:23;41.27;35.96;51.09;;
49215;Laerm;45943;53.148;8.204;2023-04-03T00:13:49;40.55;36.54;43.13;;
49215;Laerm;45943;53.148;8.204;2023-04-03T00:16:15;40.75;36.94;43.74;;
49215;Laerm;45943;53.148;8.204;2023-04-03T00:18:41;40.59;36.80;44.18;;
49215;Laerm;45943;53.148;8.204;2023-04-03T00:21:09;40.70;37.51;43.19;;
49215;Laerm;45943;53.148;8.204;2023-04-03T00:23:35;40.24;36.26;42.69;;
49215;Laerm;45943;53.148;8.204;2023-04-03T00:26:01;40.71;36.54;50.55;;
49215;Laerm;45943;53.148;8.204;2023-04-03T00:28:27;40.94;37.29;47.19;;
49215;Laerm;45943;53.148;8.204;2023-04-03T00:30:53;40.79;36.80;44.63;;
49215;Laerm;45943;53.148;8.204;2023-04-03T00:33:19;40.46;36.26;43.79;;
49215;Laerm;45943;53.148;8.204;2023-04-03T00:35:50;45.49;37.05;62.22;;
49215;Laerm;45943;53.148;8.204;2023-04-03T00:38:17;40.33;36.54;42.89;;
49215;Laerm;45943;53.148;8.204;2023-04-03T00:40:45;40.38;35.96;43.84;;
49215;Laerm;45943;53.148;8.204;2023-04-03T00:43:16;40.94;36.80;51.72;;
49215;Laerm;45943;53.148;8.204;2023-04-03T00:45:45;42.29;38.78;44.50;;
49215;Laerm;45943;53.148;8.204;2023-04-03T00:48:20;65.62;39.27;77.64;;
49215;Laerm;45943;53.148;8.204;2023-04-03T00:50:47;52.82;38.97;73.25;;
49215;Laerm;45943;53.148;8.204;2023-04-03T00:53:18;41.43;37.29;44.37;;
49215;Laerm;45943;53.148;8.204;2023-04-03T00:55:47;40.91;36.54;45.36;;
49215;Laerm;45943;53.148;8.204;2023-04-03T00:58:15;41.56;37.29;44.83;;
49215;Laerm;45943;53.148;8.204;2023-04-03T01:00:48;46.19;38.12;63.65;;
49215;Laerm;45943;53.148;8.204;2023-04-03T01:03:17;41.21;38.12;44.37;;
49215;Laerm;45943;53.148;8.204;2023-04-03T01:05:43;41.12;37.29;43.64;;
49215;Laerm;45943;53.148;8.204;2023-04-03T01:08:09;41.35;37.29;43.58;;
49215;Laerm;45943;53.148;8.204;2023-04-03T01:10:35;41.96;38.48;44.71;;
49215;Laerm;45943;53.148;8.204;2023-04-03T01:13:01;40.98;37.51;55.13;;
49215;Laerm;45943;53.148;8.204;2023-04-03T01:15:27;40.67;35.96;42.82;;
49215;Laerm;45943;53.148;8.204;2023-04-03T01:18:00;40.86;37.29;43.01;;
49215;Laerm;45943;53.148;8.204;2023-04-03T01:25:51;41.27;37.51;44.23;;
49215;Laerm;45943;53.148;8.204;2023-04-03T01:28:18;41.00;37.72;46.26;;
49215;Laerm;45943;53.148;8.204;2023-04-03T01:30:53;40.91;37.29;43.48;;
49215;Laerm;45943;53.148;8.204;2023-04-03T01:33:21;43.00;38.30;46.95;;
49215;Laerm;45943;53.148;8.204;2023-04-03T01:35:47;41.00;37.72;43.42;;
49215;Laerm;45943;53.148;8.204;2023-04-03T01:38:13;41.16;37.29;43.58;;
49215;Laerm;45943;53.148;8.204;2023-04-03T01:40:39;41.05;37.92;43.01;;
49215;Laerm;45943;53.148;8.204;2023-04-03T01:43:05;41.50;38.47;45.43;;
49215;Laerm;45943;53.148;8.204;2023-04-03T01:45:31;44.81;37.72;64.18;;
49215;Laerm;45943;53.148;8.204;2023-04-03T01:47:57;41.24;37.29;44.09;;
49215;Laerm;45943;53.148;8.204;2023-04-03T01:50:23;41.40;38.12;45.83;;
49215;Laerm;45943;53.148;8.204;2023-04-03T01:52:48;41.43;37.05;44.87;;
49215;Laerm;45943;53.148;8.204;2023-04-03T01:55:14;48.06;38.48;66.68;;
49215;Laerm;45943;53.148;8.204;2023-04-03T01:57:40;41.31;37.29;45.11;;
49215;Laerm;45943;53.148;8.204;2023-04-03T02:00:07;53.33;38.30;73.15;;
49215;Laerm;45943;53.148;8.204;2023-04-03T02:02:33;43.14;38.48;52.49;;
49215;Laerm;45943;53.148;8.204;2023-04-03T02:04:59;41.85;38.30;44.63;;
49215;Laerm;45943;53.148;8.204;2023-04-03T02:07:25;41.70;37.92;45.50;;
49215;Laerm;45943;53.148;8.204;2023-04-03T02:09:51;41.61;38.48;44.04;;
49215;Laerm;45943;53.148;8.204;2023-04-03T02:12:17;41.52;38.30;43.69;;
49215;Laerm;45943;53.148;8.204;2023-04-03T02:14:43;51.84;37.72;66.49;;
49215;Laerm;45943;53.148;8.204;2023-04-03T02:17:09;58.47;39.81;68.78;;
49215;Laerm;45943;53.148;8.204;2023-04-03T02:19:35;42.66;39.41;45.14;;
49215;Laerm;45943;53.148;8.204;2023-04-03T02:22:03;57.00;39.12;68.77;;
49215;Laerm;45943;53.148;8.204;2023-04-03T02:24:29;58.40;40.30;70.54;;
49215;Laerm;45943;53.148;8.204;2023-04-03T02:26:55;41.76;38.81;45.47;;
49215;Laerm;45943;53.148;8.204;2023-04-03T02:29:21;42.29;38.81;46.08;;
49215;Laerm;45943;53.148;8.204;2023-04-03T02:31:47;41.99;38.81;44.23;;
49215;Laerm;45943;53.148;8.204;2023-04-03T02:34:13;49.91;38.97;69.99;;
49215;Laerm;45943;53.148;8.204;2023-04-03T02:36:39;41.97;39.12;43.84;;
49215;Laerm;45943;53.148;8.204;2023-04-03T02:39:05;42.16;39.41;47.49;;
49215;Laerm;45943;53.148;8.204;2023-04-03T02:41:31;47.91;38.97;67.84;;
49215;Laerm;45943;53.148;8.204;2023-04-03T02:44:02;42.07;39.81;45.11;;
49215;Laerm;45943;53.148;8.204;2023-04-03T02:46:28;42.31;39.55;48.67;;
49215;Laerm;45943;53.148;8.204;2023-04-03T02:48:54;42.24;39.94;44.32;;
49215;Laerm;45943;53.148;8.204;2023-04-03T02:51:20;48.51;39.68;68.35;;
49215;Laerm;45943;53.148;8.204;2023-04-03T02:53:46;42.29;39.55;44.32;;
49215;Laerm;45943;53.148;8.204;2023-04-03T02:56:12;42.28;39.27;45.40;;
49215;Laerm;45943;53.148;8.204;2023-04-03T02:58:38;45.88;39.41;71.93;;
49215;Laerm;45943;53.148;8.204;2023-04-03T03:01:04;49.69;39.68;69.15;;
49215;Laerm;45943;53.148;8.204;2023-04-03T03:03:30;42.30;39.94;45.67;;
49215;Laerm;45943;53.148;8.204;2023-04-03T03:06:09;42.50;39.81;45.80;;
49215;Laerm;45943;53.148;8.204;2023-04-03T03:08:36;42.52;40.06;45.25;;
49215;Laerm;45943;53.148;8.204;2023-04-03T03:11:03;42.95;40.52;52.07;;
49215;Laerm;45943;53.148;8.204;2023-04-03T03:13:31;43.02;40.41;46.83;;
49215;Laerm;45943;53.148;8.204;2023-04-03T03:15:57;43.22;40.93;47.17;;
49215;Laerm;45943;53.148;8.204;2023-04-03T03:18:23;43.08;40.73;45.54;;
49215;Laerm;45943;53.148;8.204;2023-04-03T03:20:57;55.53;41.03;71.07;;
49215;Laerm;45943;53.148;8.204;2023-04-03T03:23:24;47.80;40.73;65.59;;
49215;Laerm;45943;53.148;8.204;2023-04-03T03:25:58;43.05;40.93;48.56;;
49215;Laerm;45943;53.148;8.204;2023-04-03T03:28:25;50.23;40.93;69.92;;
49215;Laerm;45943;53.148;8.204;2023-04-03T03:30:50;50.04;40.73;70.16;;
49215;Laerm;45943;53.148;8.204;2023-04-03T03:33:17;51.30;40.93;67.71;;
49215;Laerm;45943;53.148;8.204;2023-04-03T03:35:43;43.43;40.41;48.75;;
49215;Laerm;45943;53.148;8.204;2023-04-03T03:38:09;43.77;41.22;49.29;;
49215;Laerm;45943;53.148;8.204;2023-04-03T03:40:36;56.98;41.40;71.34;;
49215;Laerm;45943;53.148;8.204;2023-04-03T03:43:02;47.96;41.03;65.95;;
49215;Laerm;45943;53.148;8.204;2023-04-03T03:45:28;43.20;40.83;49.40;;
49215;Laerm;45943;53.148;8.204;2023-04-03T03:47:54;47.31;41.22;63.97;;
49215;Laerm;45943;53.148;8.204;2023-04-03T03:50:20;49.34;41.03;68.28;;
49215;Laerm;45943;53.148;8.204;2023-04-03T03:52:46;49.54;41.13;68.49;;
49215;Laerm;45943;53.148;8.204;2023-04-03T03:55:12;45.91;41.49;60.08;;
49215;Laerm;45943;53.148;8.204;2023-04-03T03:57:38;50.21;41.58;66.22;;
49215;Laerm;45943;53.148;8.204;2023-04-03T04:00:05;51.32;41.58;69.31;;
49215;Laerm;45943;53.148;8.204;2023-04-03T04:02:31;49.93;41.90;67.56;;
49215;Laerm;45943;53.148;8.204;2023-04-03T04:04:57;51.15;41.98;63.42;;
49215;Laerm;45943;53.148;8.204;2023-04-03T04:07:23;51.20;42.56;64.54;;
49215;Laerm;45943;53.148;8.204;2023-04-03T04:09:49;50.85;42.21;63.98;;
49215;Laerm;45943;53.148;8.204;2023-04-03T04:12:15;51.65;42.69;66.12;;
49215;Laerm;45943;53.148;8.204;2023-04-03T04:14:41;52.19;42.82;64.15;;
49215;Laerm;45943;53.148;8.204;2023-04-03T04:17:07;52.82;43.01;65.15;;
49215;Laerm;45943;53.148;8.204;2023-04-03T04:19:33;51.24;43.01;65.82;;
49215;Laerm;45943;53.148;8.204;2023-04-03T04:21:59;56.09;43.42;70.29;;
49215;Laerm;45943;53.148;8.204;2023-04-03T04:24:25;53.10;42.69;67.30;;
49215;Laerm;45943;53.148;8.204;2023-04-03T04:26:51;52.43;42.63;66.64;;
49215;Laerm;45943;53.148;8.204;2023-04-03T04:29:17;53.86;42.76;70.63;;
49215;Laerm;45943;53.148;8.204;2023-04-03T04:31:43;54.53;43.01;69.74;;
49215;Laerm;45943;53.148;8.204;2023-04-03T04:34:09;62.00;42.95;80.95;;
49215;Laerm;45943;53.148;8.204;2023-04-03T04:36:35;53.34;42.49;68.58;;
49215;Laerm;45943;53.148;8.204;2023-04-03T04:39:01;59.75;43.99;77.41;;
49215;Laerm;45943;53.148;8.204;2023-04-03T04:41:27;53.44;42.56;70.84;;
49215;Laerm;45943;53.148;8.204;2023-04-03T04:43:53;64.52;43.36;76.54;;
49215;Laerm;45943;53.148;8.204;2023-04-03T04:46:19;49.73;42.69;66.09;;
49215;Laerm;45943;53.148;8.204;2023-04-03T04:48:45;45.17;42.35;63.32;;
49215;Laerm;45943;53.148;8.204;2023-04-03T04:51:11;51.08;41.90;69.30;;
49215;Laerm;45943;53.148;8.204;2023-04-03T04:53:37;52.67;42.21;69.97;;
49215;Laerm;45943;53.148;8.204;2023-04-03T04:56:03;51.83;42.49;68.12;;
49215;Laerm;45943;53.148;8.204;2023-04-03T04:58:29;52.32;42.28;67.27;;
49215;Laerm;45943;53.148;8.204;2023-04-03T05:01:05;62.55;42.84;80.99;;
49215;Laerm;45943;53.148;8.204;2023-04-03T05:03:32;52.29;42.95;68.25;;
49215;Laerm;45943;53.148;8.204;2023-04-03T05:05:59;47.83;42.69;64.49;;
49215;Laerm;45943;53.148;8.204;2023-04-03T05:08:25;51.55;42.82;68.80;;
49215;Laerm;45943;53.148;8.204;2023-04-03T05:10:52;55.11;42.89;72.64;;
49215;Laerm;45943;53.148;8.204;2023-04-03T05:13:19;50.67;42.84;68.26;;
49215;Laerm;45943;53.148;8.204;2023-04-03T05:15:46;51.65;42.95;66.07;;
49215;Laerm;45943;53.148;8.204;2023-04-03T05:18:12;54.03;42.76;71.10;;
49215;Laerm;45943;53.148;8.204;2023-04-03T05:20:39;51.09;42.82;66.65;;
49215;Laerm;45943;53.148;8.204;2023-04-03T05:23:05;58.63;43.36;74.21;;
49215;Laerm;45943;53.148;8.204;2023-04-03T05:25:32;53.18;42.89;69.41;;
49215;Laerm;45943;53.148;8.204;2023-04-03T05:27:58;53.61;43.13;69.26;;
49215;Laerm;45943;53.148;8.204;2023-04-03T05:30:24;54.89;43.01;69.31;;
49215;Laerm;45943;53.148;8.204;2023-04-03T05:32:50;54.53;42.89;71.00;;
49215;Laerm;45943;53.148;8.204;2023-04-03T05:35:16;53.74;43.53;66.45;;
49215;Laerm;45943;53.148;8.204;2023-04-03T05:37:42;54.88;42.89;67.19;;
49215;Laerm;45943;53.148;8.204;2023-04-03T05:40:08;57.85;42.76;72.55;;
49215;Laerm;45943;53.148;8.204;2023-04-03T05:42:34;56.12;42.73;78.19;;
49215;Laerm;45943;53.148;8.204;2023-04-03T05:45:00;55.83;43.25;70.91;;
49215;Laerm;45943;53.148;8.204;2023-04-03T05:47:26;54.59;43.07;67.81;;
49215;Laerm;45943;53.148;8.204;2023-04-03T05:49:52;55.56;43.36;69.29;;
49215;Laerm;45943;53.148;8.204;2023-04-03T05:52:26;53.24;42.89;71.25;;
49215;Laerm;45943;53.148;8.204;2023-04-03T05:54:53;56.56;42.82;73.76;;
49215;Laerm;45943;53.148;8.204;2023-04-03T05:57:20;55.18;42.95;69.93;;
49215;Laerm;45943;53.148;8.204;2023-04-03T05:59:46;55.57;42.89;68.27;;
49215;Laerm;45943;53.148;8.204;2023-04-03T06:02:14;54.52;42.73;71.09;;
49215;Laerm;45943;53.148;8.204;2023-04-03T06:04:41;58.79;43.07;78.75;;
49215;Laerm;45943;53.148;8.204;2023-04-03T06:07:12;54.37;43.07;70.76;;
49215;Laerm;45943;53.148;8.204;2023-04-03T06:09:38;53.69;43.19;68.93;;
49215;Laerm;45943;53.148;8.204;2023-04-03T06:12:04;53.96;42.66;67.15;;
49215;Laerm;45943;53.148;8.204;2023-04-03T06:14:30;55.60;42.60;73.74;;
49215;Laerm;45943;53.148;8.204;2023-04-03T06:16:56;53.42;42.28;67.30;;
49215;Laerm;45943;53.148;8.204;2023-04-03T06:19:22;50.27;41.74;66.62;;
49215;Laerm;45943;53.148;8.204;2023-04-03T06:21:48;55.08;42.89;72.81;;
49215;Laerm;45943;53.148;8.204;2023-04-03T06:24:16;53.00;41.90;69.18;;
49215;Laerm;45943;53.148;8.204;2023-04-03T06:26:42;53.51;41.74;68.75;;
49215;Laerm;45943;53.148;8.204;2023-04-03T06:29:09;56.06;41.98;71.21;;
49215;Laerm;45943;53.148;8.204;2023-04-03T06:31:35;48.52;42.76;65.23;;
49215;Laerm;45943;53.148;8.204;2023-04-03T06:34:03;58.59;42.42;71.27;;
49215;Laerm;45943;53.148;8.204;2023-04-03T06:36:29;55.14;42.49;68.02;;
49215;Laerm;45943;53.148;8.204;2023-04-03T06:38:55;58.53;43.64;70.46;;
49215;Laerm;45943;53.148;8.204;2023-04-03T06:41:21;55.00;42.28;71.05;;
49215;Laerm;45943;53.148;8.204;2023-04-03T06:43:47;54.38;41.74;69.35;;
49215;Laerm;45943;53.148;8.204;2023-04-03T06:46:15;55.45;42.28;70.11;;
49215;Laerm;45943;53.148;8.204;2023-04-03T06:48:41;55.86;42.69;75.11;;
49215;Laerm;45943;53.148;8.204;2023-04-03T06:51:18;47.62;41.82;63.51;;
49215;Laerm;45943;53.148;8.204;2023-04-03T06:53:49;52.12;41.31;67.19;;
49215;Laerm;45943;53.148;8.204;2023-04-03T06:56:16;52.77;41.82;70.03;;
49215;Laerm;45943;53.148;8.204;2023-04-03T06:58:43;53.20;42.06;67.47;;
49215;Laerm;45943;53.148;8.204;2023-04-03T07:01:11;55.21;41.58;71.37;;
49215;Laerm;45943;53.148;8.204;2023-04-03T07:03:37;53.16;41.66;69.80;;
49215;Laerm;45943;53.148;8.204;2023-04-03T07:06:05;50.97;41.40;69.14;;
49215;Laerm;45943;53.148;8.204;2023-04-03T07:08:33;50.38;41.49;68.54;;
49215;Laerm;45943;53.148;8.204;2023-04-03T07:10:59;49.25;41.03;67.56;;
49215;Laerm;45943;53.148;8.204;2023-04-03T07:13:26;48.22;41.90;65.37;;
49215;Laerm;45943;53.148;8.204;2023-04-03T07:15:52;55.78;41.93;70.80;;
49215;Laerm;45943;53.148;8.204;2023-04-03T07:18:19;51.73;41.90;67.01;;
49215;Laerm;45943;53.148;8.204;2023-04-03T07:20:45;58.29;41.31;70.24;;
49215;Laerm;45943;53.148;8.204;2023-04-03T07:23:11;54.67;42.06;67.74;;
49215;Laerm;45943;53.148;8.204;2023-04-03T07:25:45;56.81;42.28;70.31;;
49215;Laerm;45943;53.148;8.204;2023-04-03T07:28:13;57.52;39.81;71.80;;
49215;Laerm;45943;53.148;8.204;2023-04-03T07:30:46;56.55;41.66;72.52;;
49215;Laerm;45943;53.148;8.204;2023-04-03T07:33:15;53.07;40.41;68.27;;
49215;Laerm;45943;53.148;8.204;2023-04-03T07:35:42;59.45;42.35;73.94;;
49215;Laerm;45943;53.148;8.204;2023-04-03T07:38:09;50.58;40.41;72.62;;
49215;Laerm;45943;53.148;8.204;2023-04-03T07:40:36;63.49;41.40;84.01;;
49215;Laerm;45943;53.148;8.204;2023-04-03T07:43:02;54.19;41.49;67.63;;
49215;Laerm;45943;53.148;8.204;2023-04-03T07:45:28;57.55;41.31;77.01;;
49215;Laerm;45943;53.148;8.204;2023-04-03T07:47:54;54.16;41.66;69.28;;
49215;Laerm;45943;53.148;8.204;2023-04-03T07:50:22;53.84;41.66;66.80;;
49215;Laerm;45943;53.148;8.204;2023-04-03T07:52:48;54.83;41.31;69.66;;
49215;Laerm;45943;53.148;8.204;2023-04-03T07:55:14;56.61;41.49;72.45;;
49215;Laerm;45943;53.148;8.204;2023-04-03T07:57:40;54.35;40.83;73.71;;
49215;Laerm;45943;53.148;8.204;2023-04-03T08:00:07;56.45;41.74;72.48;;
49215;Laerm;45943;53.148;8.204;2023-04-03T08:02:34;55.17;41.13;71.23;;
49215;Laerm;45943;53.148;8.204;2023-04-03T08:05:00;54.31;41.40;67.64;;
49215;Laerm;45943;53.148;8.204;2023-04-03T08:07:26;55.97;40.63;70.28;;
49215;Laerm;45943;53.148;8.204;2023-04-03T08:09:52;55.86;41.74;69.27;;
49215;Laerm;45943;53.148;8.204;2023-04-03T08:12:18;55.51;41.49;72.06;;
49215;Laerm;45943;53.148;8.204;2023-04-03T08:14:44;55.65;40.78;69.53;;
49215;Laerm;45943;53.148;8.204;2023-04-03T08:17:10;43.58;40.30;50.84;;
49215;Laerm;45943;53.148;8.204;2023-04-03T08:19:40;65.61;43.01;78.33;;
49215;Laerm;45943;53.148;8.204;2023-04-03T08:22:06;54.43;40.52;73.93;;
49215;Laerm;45943;53.148;8.204;2023-04-03T08:24:33;54.09;40.52;67.67;;
49215;Laerm;45943;53.148;8.204;2023-04-03T08:27:00;54.00;39.68;66.78;;
49215;Laerm;45943;53.148;8.204;2023-04-03T08:29:26;53.74;39.55;71.57;;
49215;Laerm;45943;53.148;8.204;2023-04-03T08:31:53;56.55;39.94;70.99;;
49215;Laerm;45943;53.148;8.204;2023-04-03T08:34:20;57.54;41.31;73.22;;
49215;Laerm;45943;53.148;8.204;2023-04-03T08:36:46;56.85;41.40;71.10;;
49215;Laerm;45943;53.148;8.204;2023-04-03T08:39:12;59.78;41.49;76.12;;
49215;Laerm;45943;53.148;8.204;2023-04-03T08:41:40;55.00;40.52;69.54;;
49215;Laerm;45943;53.148;8.204;2023-04-03T08:49:43;56.24;40.18;70.75;;
49215;Laerm;45943;53.148;8.204;2023-04-03T08:52:17;54.15;38.48;69.89;;
49215;Laerm;45943;53.148;8.204;2023-04-03T08:54:53;80.04;39.12;104.19;;
49215;Laerm;45943;53.148;8.204;2023-04-03T08:57:28;62.75;38.97;79.72;;
49215;Laerm;45943;53.148;8.204;2023-04-03T08:59:56;56.56;40.63;72.60;;
49215;Laerm;45943;53.148;8.204;2023-04-03T09:02:35;54.71;38.48;74.95;;
49215;Laerm;45943;53.148;8.204;2023-04-03T09:05:13;56.31;38.65;71.20;;
49215;Laerm;45943;53.148;8.204;2023-04-03T09:07:47;56.37;40.63;71.45;;
49215;Laerm;45943;53.148;8.204;2023-04-03T09:10:21;54.67;39.41;72.25;;
49215;Laerm;45943;53.148;8.204;2023-04-03T09:13:06;51.67;39.94;69.05;;
49215;Laerm;45943;53.148;8.204;2023-04-03T09:15:33;56.16;42.28;72.33;;
49215;Laerm;45943;53.148;8.204;2023-04-03T09:18:10;46.63;37.51;61.85;;
49215;Laerm;45943;53.148;8.204;2023-04-03T09:23:30;54.79;40.06;74.47;;
49215;Laerm;45943;53.148;8.204;2023-04-03T09:26:04;56.36;41.49;71.35;;
49215;Laerm;45943;53.148;8.204;2023-04-03T09:28:39;59.31;43.84;78.52;;
49215;Laerm;45943;53.148;8.204;2023-04-03T09:31:26;57.78;41.03;76.87;;
49215;Laerm;45943;53.148;8.204;2023-04-03T09:33:57;52.09;40.18;70.41;;
49215;Laerm;45943;53.148;8.204;2023-04-03T09:36:45;53.42;39.41;69.51;;
49215;Laerm;45943;53.148;8.204;2023-04-03T09:39:15;59.16;41.03;76.58;;
49215;Laerm;45943;53.148;8.204;2023-04-03T09:41:55;55.42;40.41;70.53;;
49215;Laerm;45943;53.148;8.204;2023-04-03T09:44:26;56.15;40.52;68.72;;
49215;Laerm;45943;53.148;8.204;2023-04-03T09:46:52;52.50;39.94;67.29;;
49215;Laerm;45943;53.148;8.204;2023-04-03T09:49:20;52.26;39.68;65.66;;
49215;Laerm;45943;53.148;8.204;2023-04-03T09:51:47;54.00;41.49;67.78;;
49215;Laerm;45943;53.148;8.204;2023-04-03T09:54:32;54.38;40.30;71.00;;
49215;Laerm;45943;53.148;8.204;2023-04-03T09:57:04;54.02;40.49;68.81;;
49215;Laerm;45943;53.148;8.204;2023-04-03T09:59:32;54.92;40.41;70.18;;
49215;Laerm;45943;53.148;8.204;2023-04-03T10:02:00;50.87;42.49;63.54;;
49215;Laerm;45943;53.148;8.204;2023-04-03T10:04:38;51.44;37.92;71.72;;
49215;Laerm;45943;53.148;8.204;2023-04-03T10:07:34;54.27;39.27;68.87;;
49215;Laerm;45943;53.148;8.204;2023-04-03T10:10:24;54.39;40.30;66.83;;
49215;Laerm;45943;53.148;8.204;2023-04-03T10:13:13;53.00;38.30;68.08;;
49215;Laerm;45943;53.148;8.204;2023-04-03T10:15:45;61.84;40.83;74.84;;
49215;Laerm;45943;53.148;8.204;2023-04-03T10:20:59;54.08;40.30;69.54;;
49215;Laerm;45943;53.148;8.204;2023-04-03T10:23:40;56.89;40.30;70.05;;
49215;Laerm;45943;53.148;8.204;2023-04-03T10:29:03;67.12;41.66;80.55;;
49215;Laerm;45943;53.148;8.204;2023-04-03T10:31:46;54.02;39.41;67.46;;
49215;Laerm;45943;53.148;8.204;2023-04-03T10:34:33;55.15;39.68;66.08;;
49215;Laerm;45943;53.148;8.204;2023-04-03T10:40:04;55.76;37.92;70.56;;
49215;Laerm;45943;53.148;8.204;2023-04-03T10:42:50;51.31;39.68;66.47;;
49215;Laerm;45943;53.148;8.204;2023-04-03T10:45:26;53.55;39.12;72.80;;
49215;Laerm;45943;53.148;8.204;2023-04-03T10:51:14;53.02;39.55;66.92;;
49215;Laerm;45943;53.148;8.204;2023-04-03T10:56:37;51.54;38.65;69.91;;
49215;Laerm;45943;53.148;8.204;2023-04-03T10:59:17;53.03;38.48;68.50;;
49215;Laerm;45943;53.148;8.204;2023-04-03T11:01:48;49.73;38.81;66.46;;
49215;Laerm;45943;53.148;8.204;2023-04-03T11:04:19;55.94;40.93;69.84;;
49215;Laerm;45943;53.148;8.204;2023-04-03T11:06:54;54.37;40.73;69.16;;
49215;Laerm;45943;53.148;8.204;2023-04-03T11:09:28;53.59;40.52;68.27;;
49215;Laerm;45943;53.148;8.204;2023-04-03T11:12:00;56.01;38.65;75.20;;
49215;Laerm;45943;53.148;8.204;2023-04-03T11:14:30;53.94;39.12;68.72;;
49215;Laerm;45943;53.148;8.204;2023-04-03T11:17:19;48.95;38.81;70.25;;
49215;Laerm;45943;53.148;8.204;2023-04-03T11:22:48;54.83;39.55;69.42;;
49215;Laerm;45943;53.148;8.204;2023-04-03T11:25:22;51.76;39.41;66.25;;
49215;Laerm;45943;53.148;8.204;2023-04-03T11:28:00;55.92;40.30;72.73;;
49215;Laerm;45943;53.148;8.204;2023-04-03T11:30:28;49.67;39.68;68.22;;
49215;Laerm;45943;53.148;8.204;2023-04-03T11:33:16;50.16;40.41;67.29;;
49215;Laerm;45943;53.148;8.204;2023-04-03T11:35:48;55.11;41.63;72.82;;
49215;Laerm;45943;53.148;8.204;2023-04-03T11:38:29;54.12;39.41;69.62;;
49215;Laerm;45943;53.148;8.204;2023-04-03T11:40:57;54.76;40.06;70.72;;
49215;Laerm;45943;53.148;8.204;2023-04-03T11:43:27;49.83;41.13;62.88;;
49215;Laerm;45943;53.148;8.204;2023-04-03T11:45:59;52.97;40.73;69.14;;
49215;Laerm;45943;53.148;8.204;2023-04-03T11:50:52;53.52;40.93;68.06;;
49215;Laerm;45943;53.148;8.204;2023-04-03T11:55:57;52.39;40.73;65.81;;
49215;Laerm;45943;53.148;8.204;2023-04-03T11:58:28;53.15;40.41;68.56;;
49215;Laerm;45943;53.148;8.204;2023-04-03T12:01:00;56.16;41.66;69.91;;
49215;Laerm;45943;53.148;8.204;2023-04-03T12:11:29;50.48;39.12;67.30;;
49215;Laerm;45943;53.148;8.204;2023-04-03T12:16:24;55.03;40.52;68.20;;
49215;Laerm;45943;53.148;8.204;2023-04-03T12:26:47;54.30;39.81;68.88;;
49215;Laerm;45943;53.148;8.204;2023-04-03T12:35:19;55.50;40.06;68.36;;
49215;Laerm;45943;53.148;8.204;2023-04-03T12:46:11;54.00;40.41;68.34;;
49215;Laerm;45943;53.148;8.204;2023-04-03T12:48:53;55.29;39.83;74.79;;
49215;Laerm;45943;53.148;8.204;2023-04-03T12:54:04;55.36;41.22;70.56;;
49215;Laerm;45943;53.148;8.204;2023-04-03T12:56:39;51.02;40.41;66.48;;
49215;Laerm;45943;53.148;8.204;2023-04-03T12:59:15;61.98;42.82;88.07;;
49215;Laerm;45943;53.148;8.204;2023-04-03T13:01:43;54.82;40.41;71.45;;
49215;Laerm;45943;53.148;8.204;2023-04-03T13:04:11;54.41;39.95;69.12;;
49215;Laerm;45943;53.148;8.204;2023-04-03T13:06:41;56.35;41.13;72.58;;
49215;Laerm;45943;53.148;8.204;2023-04-03T13:09:20;52.65;40.30;66.52;;
49215;Laerm;45943;53.148;8.204;2023-04-03T13:11:58;56.88;40.18;80.23;;
49215;Laerm;45943;53.148;8.204;2023-04-03T13:14:27;58.02;42.49;75.21;;
49215;Laerm;45943;53.148;8.204;2023-04-03T13:17:13;51.59;42.82;67.36;;
49215;Laerm;45943;53.148;8.204;2023-04-03T13:19:40;51.77;40.93;65.44;;
49215;Laerm;45943;53.148;8.204;2023-04-03T13:22:19;54.49;39.68;69.93;;
49215;Laerm;45943;53.148;8.204;2023-04-03T13:24:50;53.71;40.93;68.51;;
49215;Laerm;45943;53.148;8.204;2023-04-03T13:27:17;57.55;41.03;77.24;;
49215;Laerm;45943;53.148;8.204;2023-04-03T13:29:49;54.72;42.21;68.79;;
49215;Laerm;45943;53.148;8.204;2023-04-03T13:32:22;57.28;41.90;72.61;;
49215;Laerm;45943;53.148;8.204;2023-04-03T13:34:49;60.58;40.30;78.09;;
49215;Laerm;45943;53.148;8.204;2023-04-03T13:40:10;58.36;43.89;70.75;;
49215;Laerm;45943;53.148;8.204;2023-04-03T13:42:39;59.65;42.56;68.35;;
49215;Laerm;45943;53.148;8.204;2023-04-03T13:45:17;55.31;41.49;67.80;;
49215;Laerm;45943;53.148;8.204;2023-04-03T13:47:46;56.98;39.41;69.54;;
49215;Laerm;45943;53.148;8.204;2023-04-03T13:50:24;52.67;41.03;69.02;;
49215;Laerm;45943;53.148;8.204;2023-04-03T13:53:00;56.50;41.22;69.30;;
49215;Laerm;45943;53.148;8.204;2023-04-03T13:55:30;56.03;40.06;68.48;;
49215;Laerm;45943;53.148;8.204;2023-04-03T13:58:22;54.24;40.06;68.92;;
49215;Laerm;45943;53.148;8.204;2023-04-03T14:00:54;52.88;40.63;68.62;;
49215;Laerm;45943;53.148;8.204;2023-04-03T14:03:25;51.18;39.68;68.40;;
49215;Laerm;45943;53.148;8.204;2023-04-03T14:05:52;54.47;43.01;71.35;;
49215;Laerm;45943;53.148;8.204;2023-04-03T14:08:18;61.42;44.04;75.31;;
49215;Laerm;45943;53.148;8.204;2023-04-03T14:10:44;52.39;42.56;66.72;;
49215;Laerm;45943;53.148;8.204;2023-04-03T14:13:13;52.97;42.89;67.99;;
49215;Laerm;45943;53.148;8.204;2023-04-03T14:15:40;53.72;43.07;69.91;;
49215;Laerm;45943;53.148;8.204;2023-04-03T14:18:06;52.99;41.40;70.84;;
49215;Laerm;45943;53.148;8.204;2023-04-03T14:20:32;58.42;43.01;76.66;;
49215;Laerm;45943;53.148;8.204;2023-04-03T14:22:58;50.38;42.63;67.72;;
49215;Laerm;45943;53.148;8.204;2023-04-03T14:25:24;53.70;42.69;69.45;;
49215;Laerm;45943;53.148;8.204;2023-04-03T14:27:53;58.89;41.90;75.31;;
49215;Laerm;45943;53.148;8.204;2023-04-03T14:30:23;50.01;42.89;64.19;;
49215;Laerm;45943;53.148;8.204;2023-04-03T14:32:50;57.00;43.64;72.59;;
49215;Laerm;45943;53.148;8.204;2023-04-03T14:35:17;52.53;42.28;69.26;;
49215;Laerm;45943;53.148;8.204;2023-04-03T14:37:44;52.91;42.13;68.19;;
49215;Laerm;45943;53.148;8.204;2023-04-03T14:40:18;58.00;42.56;73.80;;
49215;Laerm;45943;53.148;8.204;2023-04-03T14:42:46;54.17;41.90;67.96;;
49215;Laerm;45943;53.148;8.204;2023-04-03T14:45:14;54.08;42.35;67.59;;
49215;Laerm;45943;53.148;8.204;2023-04-03T14:47:49;53.56;42.56;69.33;;
49215;Laerm;45943;53.148;8.204;2023-04-03T14:50:19;52.99;42.21;68.82;;
49215;Laerm;45943;53.148;8.204;2023-04-03T14:52:48;54.10;42.82;70.83;;
49215;Laerm;45943;53.148;8.204;2023-04-03T14:55:17;54.39;43.25;68.31;;
49215;Laerm;45943;53.148;8.204;2023-04-03T14:57:43;54.88;42.35;68.92;;
49215;Laerm;45943;53.148;8.204;2023-04-03T15:02:43;54.50;41.74;69.10;;
49215;Laerm;45943;53.148;8.204;2023-04-03T15:05:10;52.52;42.89;69.20;;
49215;Laerm;45943;53.148;8.204;2023-04-03T15:07:52;53.50;41.90;70.60;;
49215;Laerm;45943;53.148;8.204;2023-04-03T15:10:24;53.45;40.93;69.53;;
49215;Laerm;45943;53.148;8.204;2023-04-03T15:12:52;54.85;41.22;68.43;;